Time;durP1;ratioP1;P1;durP2;ratioP2;P2;SDS_P1;SDS_P2;PMS_P1;PMS_P2;Temp;Humidity;BMP_temperature;BMP_pressure;BME280_temperature;BME280_humidity;BME280_pressure;Samples;Min_cycle;Max_cycle;Signal;HPM_P1;HPM_P2
2020/12/22 00:01:20;;;;;;;6.45;5.72;;;;;;;;;;5093326;28;20204;-63
2020/12/22 00:03:47;;;;;;;6.40;5.35;;;;;;;;;;5093421;28;20242;-64
2020/12/22 00:06:22;;;;;;;6.28;4.97;;;;;;;;;;5093313;28;20250;-64
2020/12/22 00:08:49;;;;;;;7.15;5.68;;;;;;;;;;5093119;28;20200;-64
2020/12/22 00:11:15;;;;;;;5.35;4.35;;;;;;;;;;5093470;28;20203;-63
2020/12/22 00:13:42;;;;;;;3.80;3.45;;;;;;;;;;5093197;28;20227;-63
2020/12/22 00:16:09;;;;;;;4.10;3.70;;;;;;;;;;5093367;28;20205;-64
2020/12/22 00:18:36;;;;;;;3.40;2.97;;;;;;;;;;5094749;28;20196;-63
2020/12/22 00:21:02;;;;;;;3.30;2.97;;;;;;;;;;5095997;28;20200;-63
2020/12/22 00:23:30;;;;;;;4.55;3.50;;;;;;;;;;5097850;28;20220;-63
2020/12/22 00:25:57;;;;;;;5.15;4.45;;;;;;;;;;5098127;28;20237;-64
2020/12/22 00:28:24;;;;;;;4.05;3.63;;;;;;;;;;5098041;28;20212;-64
2020/12/22 00:30:50;;;;;;;3.97;3.65;;;;;;;;;;5097694;28;20602;-63
2020/12/22 00:33:17;;;;;;;3.63;3.33;;;;;;;;;;5098033;28;20227;-63
2020/12/22 00:35:44;;;;;;;3.88;3.42;;;;;;;;;;5098003;28;20211;-63
2020/12/22 00:38:11;;;;;;;3.65;3.35;;;;;;;;;;5097392;28;20192;-63
2020/12/22 00:40:38;;;;;;;4.88;3.50;;;;;;;;;;5097432;28;20196;-63
2020/12/22 00:43:06;;;;;;;2.55;2.35;;;;;;;;;;5097338;28;20222;-63
2020/12/22 00:45:32;;;;;;;3.17;2.63;;;;;;;;;;5097313;28;20208;-63
2020/12/22 00:47:59;;;;;;;2.40;1.90;;;;;;;;;;5097097;28;20220;-64
2020/12/22 00:50:26;;;;;;;2.53;2.17;;;;;;;;;;5096802;28;20211;-64
2020/12/22 00:52:53;;;;;;;2.33;2.00;;;;;;;;;;5097096;28;20627;-63
2020/12/22 00:55:20;;;;;;;2.13;1.88;;;;;;;;;;5096714;28;20200;-63
2020/12/22 00:57:47;;;;;;;1.77;1.67;;;;;;;;;;5096991;28;20192;-63
2020/12/22 01:00:16;;;;;;;1.85;1.50;;;;;;;;;;5096709;28;20672;-62
2020/12/22 01:02:43;;;;;;;2.63;1.50;;;;;;;;;;5097328;28;20293;-63
2020/12/22 01:05:09;;;;;;;2.05;1.40;;;;;;;;;;5097277;28;20197;-63
2020/12/22 01:07:36;;;;;;;1.23;1.13;;;;;;;;;;5097121;28;20571;-62
2020/12/22 01:10:03;;;;;;;2.25;1.40;;;;;;;;;;5097052;28;20239;-63
2020/12/22 01:12:30;;;;;;;1.60;1.20;;;;;;;;;;5097072;28;20224;-63
2020/12/22 01:14:58;;;;;;;3.72;1.40;;;;;;;;;;5096990;28;20613;-63
2020/12/22 01:17:25;;;;;;;1.23;0.90;;;;;;;;;;5096723;28;20253;-62
2020/12/22 01:19:53;;;;;;;1.38;1.15;;;;;;;;;;5096315;28;20201;-64
2020/12/22 01:22:19;;;;;;;1.42;1.33;;;;;;;;;;5096393;28;20221;-63
2020/12/22 01:24:46;;;;;;;1.35;1.25;;;;;;;;;;5096412;28;20205;-62
2020/12/22 01:27:13;;;;;;;1.30;1.08;;;;;;;;;;5096062;28;20664;-62
2020/12/22 01:29:40;;;;;;;1.40;1.30;;;;;;;;;;5096200;28;20200;-62
2020/12/22 01:32:07;;;;;;;1.63;1.40;;;;;;;;;;5096231;28;20242;-62
2020/12/22 01:34:34;;;;;;;1.85;1.33;;;;;;;;;;5095841;28;20630;-62
2020/12/22 01:37:01;;;;;;;1.52;1.30;;;;;;;;;;5096496;28;20672;-63
2020/12/22 01:39:27;;;;;;;2.08;1.25;;;;;;;;;;5096223;28;20245;-62
2020/12/22 01:41:54;;;;;;;1.38;1.27;;;;;;;;;;5096449;28;20216;-62
2020/12/22 01:44:21;;;;;;;1.40;1.30;;;;;;;;;;5096801;28;20258;-63
2020/12/22 01:46:48;;;;;;;1.35;1.25;;;;;;;;;;5096251;28;20572;-63
2020/12/22 01:49:17;;;;;;;1.40;1.30;;;;;;;;;;5098794;28;20220;-63
2020/12/22 01:51:45;;;;;;;3.35;1.42;;;;;;;;;;5098175;28;20227;-63
2020/12/22 01:54:13;;;;;;;1.40;1.30;;;;;;;;;;5096377;28;20691;-63
2020/12/22 01:56:40;;;;;;;1.63;1.52;;;;;;;;;;5096579;28;20204;-63
2020/12/22 01:59:07;;;;;;;1.45;1.17;;;;;;;;;;5096028;28;20207;-62
2020/12/22 02:01:34;;;;;;;1.20;1.10;;;;;;;;;;5096537;28;20196;-63
2020/12/22 02:04:01;;;;;;;2.28;1.48;;;;;;;;;;5097545;28;20204;-64
2020/12/22 02:06:29;;;;;;;1.17;1.08;;;;;;;;;;5095888;28;20212;-64
2020/12/22 02:08:56;;;;;;;2.08;1.20;;;;;;;;;;5096408;28;20604;-62
2020/12/22 02:11:23;;;;;;;0.80;0.80;;;;;;;;;;5096598;28;20200;-64
2020/12/22 02:13:50;;;;;;;0.80;0.80;;;;;;;;;;5095857;28;20315;-63
2020/12/22 02:16:17;;;;;;;1.45;1.30;;;;;;;;;;5095403;28;20227;-63
2020/12/22 02:18:44;;;;;;;1.15;0.80;;;;;;;;;;5095483;28;20200;-63
2020/12/22 02:21:12;;;;;;;1.45;1.35;;;;;;;;;;5095613;28;20204;-63
2020/12/22 02:23:38;;;;;;;1.17;1.08;;;;;;;;;;5095252;28;20629;-63
2020/12/22 02:26:05;;;;;;;1.20;1.00;;;;;;;;;;5095422;28;20245;-63
2020/12/22 02:28:33;;;;;;;0.65;0.65;;;;;;;;;;5095665;28;20269;-63
2020/12/22 02:31:00;;;;;;;1.30;1.17;;;;;;;;;;5095500;28;20211;-67
2020/12/22 02:33:26;;;;;;;3.33;0.90;;;;;;;;;;5094740;28;20734;-64
2020/12/22 02:35:53;;;;;;;1.98;0.98;;;;;;;;;;5094753;28;20736;-64
2020/12/22 02:38:21;;;;;;;1.05;0.93;;;;;;;;;;5095042;28;20223;-64
2020/12/22 02:40:48;;;;;;;2.05;0.90;;;;;;;;;;5094841;28;20204;-64
2020/12/22 02:43:15;;;;;;;1.10;1.00;;;;;;;;;;5094833;28;20297;-63
2020/12/22 02:45:42;;;;;;;1.10;1.00;;;;;;;;;;5094331;28;20208;-64
2020/12/22 02:48:09;;;;;;;1.73;1.30;;;;;;;;;;5094495;28;20216;-64
2020/12/22 02:50:36;;;;;;;1.58;0.82;;;;;;;;;;5094562;28;20200;-63
2020/12/22 02:53:03;;;;;;;0.82;0.80;;;;;;;;;;5095070;28;20242;-64
2020/12/22 02:55:31;;;;;;;0.70;0.65;;;;;;;;;;5094990;28;20200;-63
2020/12/22 02:57:58;;;;;;;0.70;0.70;;;;;;;;;;5094757;28;20193;-63
2020/12/22 03:00:25;;;;;;;0.82;0.75;;;;;;;;;;5096367;28;20203;-63
2020/12/22 03:02:51;;;;;;;2.45;0.80;;;;;;;;;;5094694;28;20275;-64
2020/12/22 03:05:18;;;;;;;3.08;0.90;;;;;;;;;;5094401;28;20204;-64
2020/12/22 03:07:45;;;;;;;0.80;0.80;;;;;;;;;;5094550;28;20204;-64
2020/12/22 03:10:13;;;;;;;0.80;0.80;;;;;;;;;;5094412;28;20212;-64
2020/12/22 03:12:41;;;;;;;0.77;0.73;;;;;;;;;;5094066;28;20227;-65
2020/12/22 03:15:08;;;;;;;0.80;0.80;;;;;;;;;;5094519;28;20667;-63
2020/12/22 03:17:35;;;;;;;0.60;0.60;;;;;;;;;;5094482;28;20204;-64
2020/12/22 03:20:02;;;;;;;0.80;0.80;;;;;;;;;;5094284;28;20253;-64
2020/12/22 03:22:28;;;;;;;0.80;0.80;;;;;;;;;;5094287;28;20243;-63
2020/12/22 03:24:55;;;;;;;1.00;0.80;;;;;;;;;;5094199;28;20298;-63
2020/12/22 03:27:22;;;;;;;0.90;0.70;;;;;;;;;;5094499;28;20676;-63
2020/12/22 03:29:49;;;;;;;3.60;0.90;;;;;;;;;;5096203;28;20683;-63
2020/12/22 03:32:16;;;;;;;1.08;0.65;;;;;;;;;;5097220;28;20216;-63
2020/12/22 03:34:43;;;;;;;0.85;0.73;;;;;;;;;;5098862;28;20200;-64
2020/12/22 03:37:10;;;;;;;1.00;0.90;;;;;;;;;;5099533;28;20204;-64
2020/12/22 03:39:37;;;;;;;0.60;0.60;;;;;;;;;;5097000;28;20203;-63
2020/12/22 03:42:03;;;;;;;0.80;0.80;;;;;;;;;;5097288;28;20216;-63
2020/12/22 03:44:30;;;;;;;0.80;0.70;;;;;;;;;;5094960;28;20648;-63
2020/12/22 03:46:58;;;;;;;0.60;0.60;;;;;;;;;;5094286;28;20204;-63
2020/12/22 03:49:24;;;;;;;1.08;0.70;;;;;;;;;;5093789;28;20784;-63
2020/12/22 03:51:51;;;;;;;0.63;0.63;;;;;;;;;;5093780;28;20204;-63
2020/12/22 03:54:18;;;;;;;0.60;0.50;;;;;;;;;;5094173;28;20212;-62
2020/12/22 03:56:45;;;;;;;0.57;0.57;;;;;;;;;;5093732;28;20287;-63
2020/12/22 03:59:11;;;;;;;0.60;0.55;;;;;;;;;;5093522;28;20442;-63
2020/12/22 04:01:38;;;;;;;0.63;0.63;;;;;;;;;;5093747;28;20204;-64
2020/12/22 04:07:29;;;;;;;3.17;0.80;;;;;;;;;;5133786;27;21102;-64
2020/12/22 04:09:56;;;;;;;0.60;0.57;;;;;;;;;;5132679;28;20206;-65
2020/12/22 04:12:22;;;;;;;0.75;0.50;;;;;;;;;;5131878;28;20714;-65
2020/12/22 04:14:49;;;;;;;0.60;0.60;;;;;;;;;;5131906;28;20199;-63
2020/12/22 04:17:16;;;;;;;0.63;0.63;;;;;;;;;;5133070;28;20195;-63
2020/12/22 04:19:42;;;;;;;1.10;0.90;;;;;;;;;;5131984;28;20436;-64
2020/12/22 04:22:09;;;;;;;0.52;0.50;;;;;;;;;;5131662;28;20219;-63
2020/12/22 04:24:37;;;;;;;0.83;0.63;;;;;;;;;;5131406;28;20611;-63
2020/12/22 04:27:04;;;;;;;0.90;0.70;;;;;;;;;;5131896;28;20468;-63
2020/12/22 04:29:30;;;;;;;0.60;0.60;;;;;;;;;;5131849;28;20448;-63
2020/12/22 04:31:57;;;;;;;0.70;0.70;;;;;;;;;;5131630;28;20707;-62
2020/12/22 04:34:25;;;;;;;1.10;0.50;;;;;;;;;;5131374;28;20203;-63
2020/12/22 04:36:52;;;;;;;1.25;0.60;;;;;;;;;;5131595;28;20203;-62
2020/12/22 04:39:18;;;;;;;0.60;0.60;;;;;;;;;;5131575;28;20198;-62
2020/12/22 04:41:47;;;;;;;1.88;0.65;;;;;;;;;;5130891;28;20202;-63
2020/12/22 04:44:14;;;;;;;0.90;0.80;;;;;;;;;;5131249;28;20199;-63
2020/12/22 04:46:40;;;;;;;0.90;0.60;;;;;;;;;;5131605;28;20215;-63
2020/12/22 04:49:10;;;;;;;1.00;0.60;;;;;;;;;;5131752;28;20845;-63
2020/12/22 04:51:38;;;;;;;0.70;0.70;;;;;;;;;;5131694;28;20202;-64
2020/12/22 04:54:05;;;;;;;1.53;0.93;;;;;;;;;;5131013;28;20202;-63
2020/12/22 04:56:32;;;;;;;1.00;0.90;;;;;;;;;;5130977;28;20447;-64
2020/12/22 04:58:59;;;;;;;2.20;0.80;;;;;;;;;;5130551;28;20285;-63
2020/12/22 05:01:26;;;;;;;1.13;0.67;;;;;;;;;;5130762;28;20444;-61
2020/12/22 05:03:53;;;;;;;1.30;0.88;;;;;;;;;;5130409;28;20525;-62
2020/12/22 05:06:20;;;;;;;1.57;0.77;;;;;;;;;;5141637;27;20223;-62
2020/12/22 05:08:46;;;;;;;0.90;0.80;;;;;;;;;;5151512;27;20440;-62
2020/12/22 05:11:16;;;;;;;1.13;0.75;;;;;;;;;;5151493;27;20439;-62
2020/12/22 05:13:42;;;;;;;1.50;1.40;;;;;;;;;;5151298;27;20223;-63
2020/12/22 05:16:10;;;;;;;1.90;0.97;;;;;;;;;;5151388;27;20795;-64
2020/12/22 05:18:37;;;;;;;1.00;0.90;;;;;;;;;;5139412;27;20436;-62
2020/12/22 05:21:04;;;;;;;1.00;1.00;;;;;;;;;;5138420;27;20452;-63
2020/12/22 05:23:31;;;;;;;1.37;1.27;;;;;;;;;;5138517;27;20521;-63
2020/12/22 05:25:58;;;;;;;1.50;1.40;;;;;;;;;;5139611;27;20472;-62
2020/12/22 05:28:25;;;;;;;1.40;1.30;;;;;;;;;;5142801;27;20493;-62
2020/12/22 05:30:52;;;;;;;1.70;1.60;;;;;;;;;;5141097;27;20440;-63
2020/12/22 05:33:19;;;;;;;2.63;1.90;;;;;;;;;;5141289;27;20480;-62
2020/12/22 05:35:47;;;;;;;1.70;1.60;;;;;;;;;;5139739;27;20955;-62
2020/12/22 05:38:15;;;;;;;2.13;1.70;;;;;;;;;;5139814;27;20445;-64
2020/12/22 05:40:42;;;;;;;2.13;1.80;;;;;;;;;;5140365;27;20440;-63
2020/12/22 05:43:10;;;;;;;2.10;2.00;;;;;;;;;;5144743;27;20486;-64
2020/12/22 05:45:38;;;;;;;2.27;2.07;;;;;;;;;;5143160;27;20468;-63
2020/12/22 05:48:05;;;;;;;2.00;1.90;;;;;;;;;;5143400;27;20448;-64
2020/12/22 05:50:33;;;;;;;3.93;3.60;;;;;;;;;;5147604;27;20445;-64
2020/12/22 05:53:00;;;;;;;2.70;2.50;;;;;;;;;;5148274;27;20916;-64
2020/12/22 05:55:28;;;;;;;2.70;2.50;;;;;;;;;;5143824;27;20466;-63
2020/12/22 05:58:11;;;;;;;2.70;2.50;;;;;;;;;;5143564;27;20452;-63
2020/12/22 06:00:38;;;;;;;2.60;2.40;;;;;;;;;;5143660;27;20492;-64
2020/12/22 06:03:07;;;;;;;2.30;2.20;;;;;;;;;;5145928;27;20457;-64
2020/12/22 06:05:36;;;;;;;4.80;2.80;;;;;;;;;;5146580;27;20504;-64
2020/12/22 06:08:03;;;;;;;3.00;2.70;;;;;;;;;;5143250;27;20967;-64
2020/12/22 06:10:30;;;;;;;2.70;2.50;;;;;;;;;;5142296;27;20444;-63
2020/12/22 06:12:58;;;;;;;2.90;2.70;;;;;;;;;;5140408;27;20468;-63
2020/12/22 06:15:25;;;;;;;4.10;3.40;;;;;;;;;;5138482;27;20523;-63
2020/12/22 06:17:52;;;;;;;3.50;3.20;;;;;;;;;;5139006;27;20437;-64
2020/12/22 06:20:21;;;;;;;3.40;3.17;;;;;;;;;;5138965;27;20444;-64
2020/12/22 06:22:49;;;;;;;3.50;3.23;;;;;;;;;;5138707;27;20968;-64
2020/12/22 06:25:19;;;;;;;4.20;3.43;;;;;;;;;;5138075;27;20441;-62
2020/12/22 06:27:45;;;;;;;4.27;3.87;;;;;;;;;;5138163;27;20535;-62
2020/12/22 06:30:14;;;;;;;4.17;3.80;;;;;;;;;;5136922;27;20810;-61
2020/12/22 06:32:40;;;;;;;4.63;4.27;;;;;;;;;;5136807;27;21003;-64
2020/12/22 06:35:27;;;;;;;5.27;4.20;;;;;;;;;;5136542;27;20448;-63
2020/12/22 06:37:55;;;;;;;4.77;4.37;;;;;;;;;;5136749;27;20900;-63
2020/12/22 06:40:51;;;;;;;4.60;4.17;;;;;;;;;;5138416;27;20441;-63
2020/12/22 06:43:33;;;;;;;4.80;4.30;;;;;;;;;;5136589;27;20469;-63
2020/12/22 06:46:00;;;;;;;4.70;4.20;;;;;;;;;;5135847;27;20837;-62
2020/12/22 06:48:26;;;;;;;4.83;4.43;;;;;;;;;;5136172;27;20943;-64
2020/12/22 06:50:53;;;;;;;4.23;3.93;;;;;;;;;;5136488;27;20803;-63
2020/12/22 06:53:41;;;;;;;4.50;4.10;;;;;;;;;;5135655;27;20480;-64
2020/12/22 06:56:08;;;;;;;4.30;4.00;;;;;;;;;;5136870;27;20424;-62
2020/12/22 06:58:38;;;;;;;3.67;3.40;;;;;;;;;;5135613;27;20444;-63
2020/12/22 07:01:24;;;;;;;4.40;4.10;;;;;;;;;;5135370;27;20481;-62
2020/12/22 07:03:50;;;;;;;3.50;3.30;;;;;;;;;;5135521;27;20473;-63
2020/12/22 07:06:41;;;;;;;3.00;2.80;;;;;;;;;;5135632;27;20487;-63
2020/12/22 07:09:12;;;;;;;3.00;2.80;;;;;;;;;;5135613;27;20940;-63
2020/12/22 07:11:39;;;;;;;2.70;2.50;;;;;;;;;;5135202;27;20420;-63
2020/12/22 07:14:06;;;;;;;3.10;2.80;;;;;;;;;;5134789;27;20932;-63
2020/12/22 07:16:33;;;;;;;3.10;2.90;;;;;;;;;;5135092;27;20803;-63
2020/12/22 07:19:01;;;;;;;3.15;2.95;;;;;;;;;;5134888;27;20464;-64
2020/12/22 07:21:32;;;;;;;3.00;2.80;;;;;;;;;;5135380;27;20201;-64
2020/12/22 07:23:59;;;;;;;2.83;2.63;;;;;;;;;;5134899;27;20429;-62
2020/12/22 07:26:28;;;;;;;2.57;2.37;;;;;;;;;;5134529;27;20476;-63
2020/12/22 07:28:55;;;;;;;2.63;2.43;;;;;;;;;;5135044;27;20441;-63
2020/12/22 07:31:22;;;;;;;2.73;2.53;;;;;;;;;;5136028;27;20924;-62
2020/12/22 07:33:49;;;;;;;3.00;2.80;;;;;;;;;;5136472;27;20460;-66
2020/12/22 07:36:17;;;;;;;2.83;2.63;;;;;;;;;;5136055;27;20468;-65
2020/12/22 07:38:44;;;;;;;2.40;2.30;;;;;;;;;;5135776;27;20432;-64
2020/12/22 07:41:10;;;;;;;3.33;3.03;;;;;;;;;;5134617;27;20485;-64
2020/12/22 07:43:38;;;;;;;2.37;2.17;;;;;;;;;;5134399;27;20463;-65
2020/12/22 07:46:05;;;;;;;2.90;2.70;;;;;;;;;;5134253;27;20468;-64
2020/12/22 07:48:33;;;;;;;2.63;2.47;;;;;;;;;;5134634;27;20452;-63
2020/12/22 07:50:59;;;;;;;2.90;2.70;;;;;;;;;;5135043;27;20476;-64
2020/12/22 07:53:26;;;;;;;2.23;2.07;;;;;;;;;;5134709;27;20479;-64
2020/12/22 07:55:53;;;;;;;2.43;2.23;;;;;;;;;;5134968;27;20444;-64
2020/12/22 07:58:20;;;;;;;2.43;2.30;;;;;;;;;;5135908;27;20440;-63
2020/12/22 08:00:48;;;;;;;2.00;1.90;;;;;;;;;;5136032;27;20445;-64
2020/12/22 08:03:15;;;;;;;2.00;1.90;;;;;;;;;;5136225;27;20464;-63
2020/12/22 08:05:56;;;;;;;2.40;2.20;;;;;;;;;;5135350;28;20459;-64
2020/12/22 08:08:23;;;;;;;2.30;2.10;;;;;;;;;;5134750;28;20453;-63
2020/12/22 08:10:50;;;;;;;1.90;1.80;;;;;;;;;;5134650;28;20440;-63
2020/12/22 08:13:18;;;;;;;2.50;1.60;;;;;;;;;;5134540;28;20465;-64
2020/12/22 08:15:44;;;;;;;2.50;1.40;;;;;;;;;;5134355;28;20815;-63
2020/12/22 08:18:12;;;;;;;1.97;1.27;;;;;;;;;;5134692;28;20448;-62
2020/12/22 08:20:39;;;;;;;1.07;1.00;;;;;;;;;;5134890;28;20440;-62
2020/12/22 08:23:07;;;;;;;0.90;0.90;;;;;;;;;;5135558;28;20552;-63
2020/12/22 08:25:33;;;;;;;1.70;1.10;;;;;;;;;;5137958;28;20469;-63
2020/12/22 08:28:00;;;;;;;1.53;1.23;;;;;;;;;;5136174;28;20444;-62
2020/12/22 08:30:27;;;;;;;1.23;1.13;;;;;;;;;;5135374;28;20567;-63
2020/12/22 08:32:55;;;;;;;3.07;1.00;;;;;;;;;;5135615;28;20979;-63
2020/12/22 08:35:24;;;;;;;1.90;0.83;;;;;;;;;;5135428;28;20448;-64
2020/12/22 08:37:50;;;;;;;0.97;0.93;;;;;;;;;;5134768;28;20472;-64
2020/12/22 08:40:27;;;;;;;2.37;0.87;;;;;;;;;;5134761;28;20444;-65
2020/12/22 08:42:54;;;;;;;1.80;0.90;;;;;;;;;;5134044;28;20984;-65
2020/12/22 08:45:20;;;;;;;1.23;0.90;;;;;;;;;;5134550;28;20858;-63
2020/12/22 08:47:51;;;;;;;0.90;0.90;;;;;;;;;;5134358;28;20483;-64
2020/12/22 08:50:18;;;;;;;3.23;1.87;;;;;;;;;;5134904;28;20793;-64
2020/12/22 08:52:46;;;;;;;2.40;1.00;;;;;;;;;;5136146;27;20498;-65
2020/12/22 08:55:13;;;;;;;1.27;1.00;;;;;;;;;;5139044;27;20482;-64
2020/12/22 08:57:40;;;;;;;1.60;1.00;;;;;;;;;;5139281;27;20807;-64
2020/12/22 09:00:13;;;;;;;2.90;1.13;;;;;;;;;;5138561;27;20440;-65
2020/12/22 09:02:41;;;;;;;2.50;1.07;;;;;;;;;;5138389;27;20517;-63
2020/12/22 09:05:15;;;;;;;2.77;1.10;;;;;;;;;;5137920;27;20452;-64
2020/12/22 09:07:42;;;;;;;3.53;1.20;;;;;;;;;;5137527;27;20491;-63
2020/12/22 09:10:10;;;;;;;2.83;1.13;;;;;;;;;;5137359;27;20444;-64
2020/12/22 09:12:37;;;;;;;0.80;0.80;;;;;;;;;;5137533;27;20798;-63
2020/12/22 09:15:07;;;;;;;3.07;1.03;;;;;;;;;;5137792;27;20451;-63
2020/12/22 09:17:34;;;;;;;1.57;1.00;;;;;;;;;;5137496;27;20928;-62
2020/12/22 09:20:01;;;;;;;2.70;1.03;;;;;;;;;;5137681;27;20551;-64
2020/12/22 09:22:29;;;;;;;5.80;1.07;;;;;;;;;;5138203;27;20806;-63
2020/12/22 09:24:56;;;;;;;1.30;1.07;;;;;;;;;;5137493;27;20448;-64
2020/12/22 09:27:29;;;;;;;2.20;1.10;;;;;;;;;;5137478;27;20472;-62
2020/12/22 09:29:56;;;;;;;0.90;0.70;;;;;;;;;;5139307;27;20489;-63
2020/12/22 09:32:23;;;;;;;1.83;0.90;;;;;;;;;;5137209;27;20468;-63
2020/12/22 09:34:49;;;;;;;5.40;1.50;;;;;;;;;;5139957;27;20920;-64
2020/12/22 09:37:16;;;;;;;5.23;0.80;;;;;;;;;;5138580;27;20470;-62
2020/12/22 09:39:45;;;;;;;1.03;0.90;;;;;;;;;;5137155;27;20461;-64
2020/12/22 09:42:12;;;;;;;3.17;1.47;;;;;;;;;;5137243;27;20500;-64
2020/12/22 09:44:39;;;;;;;1.40;0.80;;;;;;;;;;5136790;27;20493;-64
2020/12/22 09:47:06;;;;;;;1.40;1.10;;;;;;;;;;5136555;27;20536;-64
2020/12/22 09:49:33;;;;;;;2.20;0.93;;;;;;;;;;5136172;27;20963;-65
2020/12/22 09:51:59;;;;;;;1.50;0.93;;;;;;;;;;5138023;27;20460;-63
2020/12/22 09:54:26;;;;;;;1.77;1.17;;;;;;;;;;5137615;27;20480;-63
2020/12/22 09:56:53;;;;;;;2.30;1.30;;;;;;;;;;5136802;27;20444;-63
2020/12/22 09:59:20;;;;;;;3.27;1.40;;;;;;;;;;5136259;27;20912;-64
2020/12/22 10:01:48;;;;;;;1.30;1.20;;;;;;;;;;5136190;27;20451;-65
2020/12/22 10:04:15;;;;;;;2.43;1.23;;;;;;;;;;5136228;27;20444;-64
2020/12/22 10:06:43;;;;;;;2.10;1.33;;;;;;;;;;5136224;27;20488;-65
2020/12/22 10:09:10;;;;;;;2.40;1.43;;;;;;;;;;5136658;27;20437;-65
2020/12/22 10:11:37;;;;;;;3.43;1.40;;;;;;;;;;5136105;27;20448;-64
2020/12/22 10:14:05;;;;;;;2.60;1.43;;;;;;;;;;5136206;27;20932;-65
2020/12/22 10:16:31;;;;;;;1.37;1.20;;;;;;;;;;5136265;27;20452;-65
2020/12/22 10:18:59;;;;;;;2.67;1.20;;;;;;;;;;5136120;27;20451;-65
2020/12/22 10:21:26;;;;;;;1.00;0.90;;;;;;;;;;5136082;27;20440;-65
2020/12/22 10:23:59;;;;;;;2.57;1.40;;;;;;;;;;5135894;27;20473;-64
2020/12/22 10:26:26;;;;;;;4.60;1.90;;;;;;;;;;5136282;27;20815;-63
2020/12/22 10:28:53;;;;;;;3.80;1.13;;;;;;;;;;5139122;27;20437;-64
2020/12/22 10:31:22;;;;;;;1.67;1.33;;;;;;;;;;5148003;27;20437;-64
2020/12/22 10:33:49;;;;;;;2.03;1.20;;;;;;;;;;5138502;27;20471;-64
2020/12/22 10:36:18;;;;;;;1.57;1.47;;;;;;;;;;5136900;27;20445;-65
2020/12/22 10:38:44;;;;;;;3.37;2.10;;;;;;;;;;5137078;27;20443;-64
2020/12/22 10:41:11;;;;;;;1.50;1.40;;;;;;;;;;5138362;27;20444;-63
2020/12/22 10:43:38;;;;;;;2.37;1.50;;;;;;;;;;5137546;27;20457;-65
2020/12/22 10:46:05;;;;;;;2.77;1.70;;;;;;;;;;5139129;27;20468;-64
2020/12/22 10:48:32;;;;;;;1.90;1.60;;;;;;;;;;5137616;27;20444;-63
2020/12/22 10:50:58;;;;;;;4.20;1.70;;;;;;;;;;5136395;27;20505;-64
2020/12/22 10:53:26;;;;;;;2.43;1.60;;;;;;;;;;5136567;27;20460;-64
2020/12/22 10:55:54;;;;;;;1.50;1.37;;;;;;;;;;5136620;27;20494;-64
2020/12/22 10:58:20;;;;;;;2.00;1.30;;;;;;;;;;5136625;27;20444;-65
2020/12/22 11:00:47;;;;;;;1.70;1.60;;;;;;;;;;5135636;27;20445;-64
2020/12/22 11:03:18;;;;;;;1.40;1.30;;;;;;;;;;5135881;27;20460;-64
2020/12/22 11:08:30;;;;;;;1.60;1.20;;;;;;;;;;5136474;27;20454;-63
2020/12/22 11:10:57;;;;;;;2.60;1.27;;;;;;;;;;5136585;27;20920;-62
2020/12/22 11:13:24;;;;;;;2.23;1.30;;;;;;;;;;5136021;27;20469;-63
2020/12/22 11:15:51;;;;;;;1.93;1.10;;;;;;;;;;5135532;27;20470;-63
2020/12/22 11:18:18;;;;;;;2.13;1.40;;;;;;;;;;5135627;27;20440;-63
2020/12/22 11:20:45;;;;;;;1.57;1.47;;;;;;;;;;5136029;27;21058;-64
2020/12/22 11:23:12;;;;;;;4.00;1.17;;;;;;;;;;5135302;27;20468;-64
2020/12/22 11:25:39;;;;;;;1.30;0.97;;;;;;;;;;5135744;27;20440;-63
2020/12/22 11:28:06;;;;;;;1.77;1.10;;;;;;;;;;5136015;27;20563;-62
2020/12/22 11:30:33;;;;;;;1.20;1.07;;;;;;;;;;5137040;27;20440;-64
2020/12/22 11:33:00;;;;;;;0.93;0.83;;;;;;;;;;5136207;27;20468;-63
2020/12/22 11:35:26;;;;;;;3.30;1.10;;;;;;;;;;5136292;27;20486;-63
2020/12/22 11:37:53;;;;;;;1.33;1.20;;;;;;;;;;5135389;27;20444;-62
2020/12/22 11:40:20;;;;;;;1.97;0.97;;;;;;;;;;5135819;27;20436;-64
2020/12/22 11:42:47;;;;;;;1.27;1.10;;;;;;;;;;5134682;27;20480;-63
2020/12/22 11:45:14;;;;;;;1.27;1.03;;;;;;;;;;5134414;27;20819;-62
2020/12/22 11:47:41;;;;;;;1.40;1.07;;;;;;;;;;5134997;27;20991;-64
2020/12/22 11:50:08;;;;;;;2.80;1.30;;;;;;;;;;5136277;27;20436;-63
2020/12/22 11:52:34;;;;;;;2.30;1.47;;;;;;;;;;5134974;27;20884;-63
2020/12/22 11:55:01;;;;;;;1.50;1.40;;;;;;;;;;5134897;27;20499;-64
2020/12/22 11:57:28;;;;;;;1.53;1.13;;;;;;;;;;5135071;27;20432;-64
2020/12/22 11:59:55;;;;;;;2.50;1.57;;;;;;;;;;5135110;27;20448;-63
2020/12/22 12:02:22;;;;;;;2.70;1.67;;;;;;;;;;5134470;28;20464;-63
2020/12/22 12:04:49;;;;;;;5.70;1.53;;;;;;;;;;5134993;27;20444;-62
2020/12/22 12:07:16;;;;;;;1.90;1.70;;;;;;;;;;5134642;28;20476;-63
2020/12/22 12:09:42;;;;;;;2.97;1.53;;;;;;;;;;5134565;28;20448;-63
2020/12/22 12:12:11;;;;;;;2.03;1.83;;;;;;;;;;5134485;28;20482;-63
2020/12/22 12:14:37;;;;;;;1.67;1.50;;;;;;;;;;5134234;28;20531;-63
2020/12/22 12:17:05;;;;;;;3.13;1.47;;;;;;;;;;5134058;28;20444;-64
2020/12/22 12:19:32;;;;;;;3.53;1.80;;;;;;;;;;5135100;28;20471;-65
2020/12/22 12:21:59;;;;;;;2.80;1.77;;;;;;;;;;5134627;28;20457;-64
2020/12/22 12:24:26;;;;;;;3.73;1.83;;;;;;;;;;5134431;28;20449;-63
2020/12/22 12:26:53;;;;;;;2.60;2.00;;;;;;;;;;5134592;27;20483;-64
2020/12/22 12:29:21;;;;;;;1.80;1.70;;;;;;;;;;5138204;27;20440;-65
2020/12/22 12:31:48;;;;;;;2.07;1.33;;;;;;;;;;5138259;27;20448;-63
2020/12/22 12:34:16;;;;;;;2.10;1.57;;;;;;;;;;5139308;27;20452;-64
2020/12/22 12:36:43;;;;;;;3.90;1.83;;;;;;;;;;5140396;27;20433;-63
2020/12/22 12:39:09;;;;;;;3.20;1.50;;;;;;;;;;5142325;27;20433;-63
2020/12/22 12:41:36;;;;;;;3.40;1.90;;;;;;;;;;5142273;27;20963;-64
2020/12/22 12:44:03;;;;;;;2.80;1.70;;;;;;;;;;5142743;27;20844;-65
2020/12/22 12:46:30;;;;;;;1.93;1.73;;;;;;;;;;5141279;27;20472;-63
2020/12/22 12:48:56;;;;;;;1.90;1.57;;;;;;;;;;5138115;27;20493;-63
2020/12/22 12:51:24;;;;;;;3.93;1.80;;;;;;;;;;5138455;27;20444;-64
2020/12/22 12:53:51;;;;;;;1.60;1.47;;;;;;;;;;5137604;27;20533;-64
2020/12/22 12:56:18;;;;;;;2.73;1.60;;;;;;;;;;5137360;27;20448;-63
2020/12/22 12:58:45;;;;;;;2.37;1.73;;;;;;;;;;5138098;27;20447;-63
2020/12/22 13:01:12;;;;;;;2.83;1.60;;;;;;;;;;5137589;27;20451;-63
2020/12/22 13:03:41;;;;;;;2.53;1.53;;;;;;;;;;5137761;27;20468;-64
2020/12/22 13:06:08;;;;;;;1.33;1.23;;;;;;;;;;5137817;27;20460;-64
2020/12/22 13:08:35;;;;;;;1.93;1.83;;;;;;;;;;5137737;27;20440;-64
2020/12/22 13:11:02;;;;;;;2.13;1.70;;;;;;;;;;5138134;27;20485;-64
2020/12/22 13:13:29;;;;;;;6.73;1.50;;;;;;;;;;5138085;27;20460;-64
2020/12/22 13:15:56;;;;;;;2.77;1.93;;;;;;;;;;5137876;27;20497;-63
2020/12/22 13:18:22;;;;;;;2.10;1.50;;;;;;;;;;5137230;27;20471;-64
2020/12/22 13:20:49;;;;;;;4.10;2.03;;;;;;;;;;5137214;27;20441;-63
2020/12/22 13:23:16;;;;;;;2.67;1.87;;;;;;;;;;5137308;27;20531;-63
2020/12/22 13:25:43;;;;;;;4.10;1.83;;;;;;;;;;5137863;27;20444;-64
2020/12/22 13:28:10;;;;;;;4.90;2.00;;;;;;;;;;5137022;27;20483;-63
2020/12/22 13:30:37;;;;;;;2.50;1.53;;;;;;;;;;5137243;27;20480;-62
2020/12/22 13:33:04;;;;;;;1.47;1.37;;;;;;;;;;5136994;27;20514;-63
2020/12/22 13:35:30;;;;;;;2.90;1.47;;;;;;;;;;5136638;27;20489;-63
2020/12/22 13:37:57;;;;;;;6.90;1.30;;;;;;;;;;5136516;27;20443;-63
2020/12/22 13:40:24;;;;;;;2.40;1.63;;;;;;;;;;5136798;27;20444;-63
2020/12/22 13:42:51;;;;;;;2.70;1.03;;;;;;;;;;5137228;27;20471;-63
2020/12/22 13:45:18;;;;;;;1.30;0.80;;;;;;;;;;5136989;27;20859;-63
2020/12/22 13:47:45;;;;;;;1.67;1.00;;;;;;;;;;5136920;27;20468;-62
2020/12/22 13:50:12;;;;;;;2.77;1.20;;;;;;;;;;5136858;27;20499;-63
2020/12/22 13:52:39;;;;;;;3.10;1.40;;;;;;;;;;5136680;27;20464;-63
2020/12/22 13:55:06;;;;;;;1.70;1.60;;;;;;;;;;5137092;27;20449;-63
2020/12/22 13:57:32;;;;;;;2.53;1.33;;;;;;;;;;5136920;27;20433;-63
2020/12/22 14:00:00;;;;;;;2.23;1.77;;;;;;;;;;5136785;27;20444;-62
2020/12/22 14:02:27;;;;;;;3.80;1.73;;;;;;;;;;5136255;27;20878;-63
2020/12/22 14:04:53;;;;;;;2.80;2.27;;;;;;;;;;5136499;27;20474;-62
2020/12/22 14:07:20;;;;;;;4.27;1.80;;;;;;;;;;5136599;27;20529;-63
2020/12/22 14:09:47;;;;;;;6.13;1.90;;;;;;;;;;5136814;27;20441;-63
2020/12/22 14:12:13;;;;;;;2.17;1.43;;;;;;;;;;5136011;27;20468;-62
2020/12/22 14:14:40;;;;;;;1.73;1.50;;;;;;;;;;5136381;27;20493;-63
2020/12/22 14:17:08;;;;;;;1.83;1.67;;;;;;;;;;5137046;27;20433;-64
2020/12/22 14:19:35;;;;;;;1.77;1.60;;;;;;;;;;5136556;27;20558;-62
2020/12/22 14:22:02;;;;;;;2.47;1.40;;;;;;;;;;5136303;27;20526;-63
2020/12/22 14:24:28;;;;;;;2.17;1.97;;;;;;;;;;5136555;27;20867;-62
2020/12/22 14:26:55;;;;;;;2.07;1.80;;;;;;;;;;5136615;27;20484;-62
2020/12/22 14:29:22;;;;;;;3.93;2.47;;;;;;;;;;5136180;27;20485;-61
2020/12/22 14:31:48;;;;;;;4.43;2.40;;;;;;;;;;5136244;27;20848;-61
2020/12/22 14:34:16;;;;;;;4.50;3.10;;;;;;;;;;5136699;27;20445;-62
2020/12/22 14:36:43;;;;;;;4.27;3.87;;;;;;;;;;5136348;27;20440;-63
2020/12/22 14:39:10;;;;;;;6.57;3.80;;;;;;;;;;5136855;27;20448;-61
2020/12/22 14:41:36;;;;;;;6.10;5.03;;;;;;;;;;5136341;27;20447;-63
2020/12/22 14:44:04;;;;;;;8.32;4.90;;;;;;;;;;5135715;27;21009;-64
2020/12/22 14:46:30;;;;;;;5.97;5.37;;;;;;;;;;5135761;27;20713;-63
2020/12/22 14:48:57;;;;;;;7.43;6.30;;;;;;;;;;5135894;27;20444;-62
2020/12/22 14:51:25;;;;;;;7.47;5.50;;;;;;;;;;5134591;27;20440;-61